メインページ
METAR-TAF:

METAR-TAF

空港 :

ポートオブスペイン, Trinidad, トリニダード・トバゴ

緯度: 10-37N, 経度: 061-21W, 海抜: 12m

現時点の気象観測

当レポートは1時間5分前の11:00(UTC)に作成
無風
気温 24°C
湿度 89%
気圧 1014 hPa
視程10km以上
高度1600ftの雲はほとんどない

METAR: TTPP 241100Z 00000KT 9999 FEW016 24/22 Q1014 NOSIG

時間: 08:05 (12:05 UTC)

予報

当レポートは2時間5分前の10:00(UTC)に作成
予報は24日の 12時(UTC)から 25日の 12時(UTC)まで有効
東/南東の風 12kt
視程10km以上
高度1600ftの雲はほとんどない
24日の 14時(UTC)から 24日の 17時(UTC)まで一時的に
視程: 7000m
高度1500ftの雲は散在している
高度3800ftの雲は散在している
にわか雨
24日の 23時(UTC)から 25日の 01時(UTC)まで徐々に
の風 5kt

TAF: TTPP 241000Z 2412/2512 11012KT 9999 FEW016 TEMPO 2414/2417 7000 SHRA SCT015 SCT038 BECMG 2423/2501 09005KT

4,000以上の空港の気象観測と天気予報(METAR報とTAF報)

利用可能な観測所は地図上に黄色い丸と赤い丸で示す。

丸の上にカーソルを重ねると観測所名を参照できる。

次にクリックすると気象観測と天気予報を参照できる。

マップの切り替え:黒色「×」印の緑ボタンをクリックして拡大、「-」印の緑ボタンをクリックして縮小、緑色の三角印をクリックして隣りの地図に切り替え


METAR-TAF: